Kirwin, Kansas
Current Conditions -  °F | °C
As of 5:53 PM on Thursday 18 Dec 2014 (Local Time) from KHLC Reporting Station
Overcast Overcast  
Wind Chill:   Ceiling: 1200
Heat Index:   Visibility: 10mi
Dew Point: -3°   Wind: 3mph
Humidity: 82%   Direction: NA
Pressure: 30.15"   Gusts: NA
Location:  39.67°N, 99.12°W
Report Text: KHLC 182353Z AUTO VRB03KT 10SM OVC012 00/M03 A3015 RMK AO2 SLP233 T00001028 10006 21017 53008
Loading
Personal Weather Stations






























Interactive Weather Map New forecast layout! Learn more

10-Day Weather Forecast

Advertisements
Track Severe Weather on mobile